Latest Weather Observations for Edinburgh

IDS60901

Issued at 9:41 pm CDT Saturday 25 February 2017 (issued every 10 minutes, with the page automatically refreshed every 10 minutes)

About weather observations | Map of Adelaide area stations | Latest observations for Adelaide area | Other Formats
Station Details ID: 023083 Name: EDINBURGH RAAF Lat: -34.71 Lon: 138.62 Height: 16.54 m
Data from the previous 72 hours. | See also: Recent months at Edinburgh
Date/Time
CDT
Temp
°C
App
Temp
°C
Dew
Point
°C
Rel
Hum
%
Delta-T
°C
Wind Press
QNH
hPa
Press
MSL
hPa
Rain since
9am
mm
Dir  Spd
km/h
Gust
km/h
Spd
kts
Gust
kts
25/09:30pm 17.3 13.4 9.5 60 4.1 SSE 20 28 11 15 1022.4 1022.3 0.0
25/09:00pm 18.0 15.4 9.4 57 4.5 SSE 13 17 7 9 1021.9 1021.8 0.0
25/08:30pm 18.6 15.3 9.4 55 4.8 SSE 17 24 9 13 1021.7 1021.6 0.0
25/08:00pm 19.6 17.4 9.2 51 5.5 SSE 11 20 6 11 1021.5 1021.4 0.0
25/07:30pm 20.7 17.2 8.7 46 6.3 SSE 17 24 9 13 1021.1 1021.0 0.0
25/07:00pm 21.7 17.7 8.2 42 7.1 SE 19 26 10 14 1021.0 1020.9 0.0
25/06:30pm 22.3 17.9 7.3 38 7.7 SE 20 28 11 15 1020.9 1020.8 0.0
25/06:00pm 22.7 18.2 6.9 36 8.1 SSE 20 28 11 15 1020.8 1020.7 0.0
25/05:30pm 23.5 19.1 7.2 35 8.5 ESE 20 30 11 16 1020.7 1020.6 0.0
25/05:00pm 23.9 19.9 6.7 33 8.9 SE 17 26 9 14 1020.9 1020.8 0.0
25/04:30pm 24.7 20.9 7.4 33 9.1 SE 17 24 9 13 1021.1 1021.0 0.0
25/04:00pm 24.7 20.6 6.4 31 9.5 SE 17 28 9 15 1021.3 1021.2 0.0
25/03:30pm 24.5 20.5 6.7 32 9.2 SSE 17 28 9 15 1021.6 1021.5 0.0
25/03:00pm 24.1 21.2 6.4 32 9.1 SE 11 22 6 12 1022.0 1021.9 0.0
25/02:30pm 24.2 21.1 7.4 34 8.8 S 13 20 7 11 1022.5 1022.4 0.0
25/02:00pm 23.7 20.2 7.3 35 8.6 S 15 22 8 12 1023.1 1023.0 0.0
25/01:30pm 22.5 19.5 7.5 38 7.8 SSE 13 22 7 12 1023.4 1023.3 0.0
25/01:00pm 22.1 19.9 7.9 40 7.4 SE 9 19 5 10 1023.8 1023.7 0.0
25/12:30pm 21.2 17.0 7.4 41 7.1 SSE 19 28 10 15 1024.2 1024.1 0.0
25/12:00pm 21.1 18.6 8.4 44 6.6 ESE 11 19 6 10 1024.7 1024.6 0.0
25/11:30am 20.7 17.4 8.0 44 6.6 ESE 15 24 8 13 1025.1 1025.0 0.0
25/11:00am 20.0 16.3 8.0 46 6.2 SE 17 22 9 12 1025.3 1025.2 0.0
25/10:30am 19.4 15.2 8.1 48 5.8 SE 20 30 11 16 1025.5 1025.4 0.0
25/10:00am 18.5 14.3 8.2 51 5.3 SE 20 26 11 14 1025.6 1025.5 0.0
25/09:30am 17.7 13.4 8.0 53 4.9 SE 20 30 11 16 1025.5 1025.4 0.0
25/09:00am 17.5 13.8 8.1 54 4.8 ESE 17 24 9 13 1025.4 1025.3 0.0
25/08:30am 16.4 12.7 7.9 57 4.3 ESE 17 32 9 17 1025.3 1025.2 0.0
25/08:00am 15.7 12.8 8.0 60 3.9 SE 13 20 7 11 1025.2 1025.1 0.0
25/07:30am 14.9 12.8 8.4 65 3.3 SE 9 17 5 9 1025.0 1024.9 0.0
25/07:00am 14.8 12.0 8.7 67 3.1 SE 13 19 7 10 1024.7 1024.6 0.0
25/06:30am 15.1 11.7 9.0 67 3.1 SE 17 30 9 16 1024.5 1024.4 0.0
25/06:00am 15.0 12.1 8.3 64 3.4 SSE 13 20 7 11 1024.2 1024.1 0.0
25/05:30am 15.2 12.4 8.7 65 3.3 SSE 13 20 7 11 1023.8 1023.7 0.0
25/05:00am 15.4 12.8 9.3 67 3.1 SE 13 20 7 11 1023.8 1023.7 0.0
25/04:30am 15.5 12.6 9.8 69 3.0 SE 15 28 8 15 1023.8 1023.7 0.0
25/04:00am 15.6 12.7 9.7 68 3.1 SE 15 24 8 13 1023.9 1023.8 0.0
25/03:30am 15.6 13.8 9.5 67 3.1 SSE 9 13 5 7 1024.1 1024.0 0.0
25/03:00am 15.5 14.3 9.6 68 3.0 SE 6 11 3 6 1024.3 1024.2 0.0
25/02:30am 15.6 14.5 9.9 69 3.0 SSE 6 13 3 7 1024.5 1024.4 0.0
25/02:00am 15.8 14.1 9.7 67 3.2 S 9 11 5 6 1024.7 1024.6 0.0
25/01:30am 15.9 14.2 9.8 67 3.2 S 9 13 5 7 1024.7 1024.6 0.0
25/01:00am 16.0 13.9 9.9 67 3.2 S 11 15 6 8 1025.0 1024.9 0.0
25/12:30am 16.2 13.7 9.8 66 3.3 SSE 13 19 7 10 1025.2 1025.1 0.0
25/12:00am 16.3 14.2 9.9 66 3.3 SSE 11 17 6 9 1025.3 1025.2 0.0
 
Date/Time
CDT
Temp
°C
App
Temp
°C
Dew
Point
°C
Rel
Hum
%
Delta-T
°C
Wind Press
QNH
hPa
Press
MSL
hPa
Rain since
9am
mm
Dir  Spd
km/h
Gust
km/h
Spd
kts
Gust
kts
24/11:30pm 16.4 14.4 10.0 66 3.3 S 11 17 6 9 1025.6 1025.5 0.0
24/11:00pm 16.3 15.1 9.7 65 3.4 S 6 9 3 5 1025.9 1025.8 0.0
24/10:30pm 16.6 14.1 9.8 64 3.5 S 13 19 7 10 1025.9 1025.8 0.0
24/10:00pm 17.0 13.7 9.7 62 3.8 S 17 24 9 13 1026.1 1026.0 0.0
24/09:30pm 17.3 13.9 9.0 58 4.3 SSE 17 26 9 14 1025.9 1025.8 0.0
24/09:00pm 17.6 14.2 9.0 57 4.4 S 17 28 9 15 1025.8 1025.7 0.0
24/08:30pm 17.8 13.7 8.6 55 4.7 SSE 20 28 11 15 1025.6 1025.5 0.0
24/08:00pm 18.3 14.3 8.3 52 5.1 SSE 19 32 10 17 1025.4 1025.3 0.0
24/07:30pm 19.2 15.1 8.5 50 5.5 SSE 20 30 11 16 1025.0 1024.9 0.0
24/07:00pm 19.8 14.9 8.5 48 5.9 S 24 33 13 18 1024.7 1024.6 0.0
24/06:30pm 20.9 16.6 9.2 47 6.2 SSE 22 32 12 17 1024.5 1024.4 0.0
24/06:00pm 21.8 17.0 8.7 43 6.9 SSE 24 39 13 21 1024.1 1024.0 0.0
24/05:30pm 23.4 18.6 8.7 39 7.8 S 24 39 13 21 1024.0 1023.9 0.0
24/05:00pm 23.8 19.5 7.8 36 8.4 SE 20 32 11 17 1023.6 1023.5 0.0
24/04:30pm 24.9 21.0 8.8 36 8.7 S 19 26 10 14 1023.5 1023.4 0.0
24/04:00pm 24.6 20.9 8.1 35 8.8 SSE 17 32 9 17 1023.6 1023.5 0.0
24/03:30pm 24.6 21.3 8.1 35 8.7 SE 15 28 8 15 1023.7 1023.6 0.0
24/03:00pm 24.4 20.7 8.0 35 8.7 SSE 17 26 9 14 1024.0 1023.9 0.0
24/02:30pm 23.9 21.5 8.7 38 8.1 WSW 11 24 6 13 1024.4 1024.3 0.0
24/02:00pm 23.5 20.0 8.8 39 7.9 SSW 17 20 9 11 1024.8 1024.7 0.0
24/01:30pm 23.5 22.1 8.8 39 7.8 SW 6 15 3 8 1025.1 1025.0 0.0
24/01:00pm 22.8 20.5 8.9 41 7.4 NNW 11 24 6 13 1025.3 1025.2 0.0
24/12:30pm 21.7 19.1 7.9 41 7.2 S 11 22 6 12 1025.9 1025.8 0.0
24/12:00pm 21.0 18.1 8.0 43 6.7 SSW 13 17 7 9 1026.2 1026.1 0.0
24/11:30am 20.0 17.5 8.0 46 6.2 SE 11 17 6 9 1026.5 1026.4 0.0
24/11:00am 19.6 17.5 8.3 48 5.9 E 9 15 5 8 1026.8 1026.7 0.0
24/10:30am 19.3 17.3 8.6 50 5.5 SSE 9 17 5 9 1026.9 1026.8 0.0
24/10:00am 18.4 15.2 8.4 52 5.2 SE 15 22 8 12 1026.9 1026.8 0.0
24/09:30am 18.0 16.6 9.4 57 4.5 SSE 7 13 4 7 1026.9 1026.8 0.0
24/09:00am 16.8 15.4 9.5 62 3.8 SSW 7 11 4 6 1026.8 1026.7 0.0
24/08:30am 15.8 15.4 11.0 73 2.5 SSW 4 7 2 4 1026.5 1026.4 0.0
24/08:00am 13.0 13.3 10.9 87 1.1 CALM 0 0 0 0 1026.4 1026.3 0.0
24/07:30am 10.9 10.6 8.5 85 1.2 CALM 0 0 0 0 1026.1 1026.0 0.0
24/07:00am 10.9 10.6 8.7 86 1.1 CALM 0 0 0 0 1025.7 1025.6 0.0
24/06:30am 11.0 10.6 8.4 84 1.3 CALM 0 0 0 0 1025.2 1025.1 0.0
24/06:00am 11.7 11.5 9.1 84 1.3 CALM 0 0 0 0 1024.9 1024.8 0.0
24/05:30am 11.5 11.1 8.4 81 1.5 CALM 0 0 0 0 1024.6 1024.5 0.0
24/05:00am 14.8 13.5 9.8 72 2.6 ESE 7 9 4 5 1024.3 1024.2 0.0
24/04:30am 14.5 13.6 11.3 81 1.7 ESE 7 13 4 7 1024.2 1024.1 0.0
24/04:00am 13.6 12.5 10.8 83 1.5 NE 7 11 4 6 1024.3 1024.2 0.0
24/03:30am 13.2 12.3 10.7 85 1.3 NE 6 7 3 4 1024.3 1024.2 0.0
24/03:00am 12.9 11.9 10.4 85 1.3 NNW 6 6 3 3 1024.2 1024.1 0.0
24/02:30am 12.6 11.3 9.8 83 1.4 WNW 7 9 4 5 1024.2 1024.1 0.0
24/02:00am 13.3 12.1 9.7 79 1.8 W 6 7 3 4 1024.1 1024.0 0.0
24/01:30am 15.8 14.9 10.6 71 2.7 S 6 6 3 3 1024.0 1023.9 0.0
24/01:00am 16.5 15.6 11.2 71 2.9 SSE 7 9 4 5 1024.1 1024.0 0.0
24/12:30am 16.9 15.3 11.4 70 3.0 SSE 11 15 6 8 1024.2 1024.1 0.0
24/12:00am 17.1 15.5 11.4 69 3.1 SE 11 15 6 8 1024.2 1024.1 0.0
 
Date/Time
CDT
Temp
°C
App
Temp
°C
Dew
Point
°C
Rel
Hum
%
Delta-T
°C
Wind Press
QNH
hPa
Press
MSL
hPa
Rain since
9am
mm
Dir  Spd
km/h
Gust
km/h
Spd
kts
Gust
kts
23/11:30pm 17.3 16.0 11.3 68 3.2 SE 9 13 5 7 1024.1 1024.0 0.0
23/11:00pm 17.7 16.5 11.5 67 3.4 SSE 9 13 5 7 1024.0 1023.9 0.0
23/10:30pm 18.1 16.5 11.4 65 3.6 SSE 11 17 6 9 1023.8 1023.7 0.0
23/10:00pm 18.7 16.6 11.3 62 4.0 SSE 13 19 7 10 1023.5 1023.4 0.0
23/09:30pm 19.2 16.4 12.5 65 3.7 SSW 19 24 10 13 1023.0 1022.9 0.0
23/09:00pm 19.0 16.0 12.5 66 3.6 SSW 20 24 11 13 1022.7 1022.6 0.0
23/08:30pm 19.5 16.5 12.5 64 3.9 SSW 20 24 11 13 1022.4 1022.3 0.0
23/08:00pm 19.9 16.0 12.2 61 4.3 SSW 24 30 13 16 1022.0 1021.9 0.0
23/07:30pm 20.8 17.2 12.0 57 4.9 SW 22 32 12 17 1021.7 1021.6 0.0
23/07:00pm 21.5 17.4 11.5 53 5.6 SW 24 30 13 16 1021.4 1021.3 0.0
23/06:30pm 22.0 18.4 11.7 52 5.7 SW 22 28 12 15 1021.1 1021.0 0.0
23/06:00pm 22.4 18.9 12.1 52 5.8 WSW 22 30 12 16 1021.0 1020.9 0.0
23/05:30pm 22.6 19.0 11.7 50 6.1 WSW 22 30 12 16 1020.8 1020.7 0.0
23/05:00pm 22.7 18.7 11.7 49 6.2 WSW 24 32 13 17 1020.7 1020.6 0.0
23/04:30pm 23.6 20.0 10.6 44 7.2 WSW 20 28 11 15 1020.7 1020.6 0.0
23/04:00pm 23.4 19.1 9.4 41 7.6 WSW 22 28 12 15 1020.7 1020.6 0.0
23/03:30pm 23.3 18.8 8.6 39 7.8 WSW 22 28 12 15 1020.8 1020.7 0.0
23/03:00pm 23.5 19.6 9.5 41 7.6 WSW 20 32 11 17 1020.8 1020.7 0.0
23/02:30pm 23.3 19.4 9.3 41 7.5 WSW 20 26 11 14 1021.0 1020.9 0.0
23/02:00pm 23.2 19.2 10.6 45 7.0 WSW 22 32 12 17 1020.9 1020.8 0.0
23/01:30pm 23.4 19.4 10.5 44 7.1 SW 22 33 12 18 1020.9 1020.8 0.0
23/01:00pm 23.4 21.0 11.5 47 6.7 SSW 15 24 8 13 1020.8 1020.7 0.0
23/12:30pm 22.9 19.2 10.3 45 6.9 SW 20 30 11 16 1021.2 1021.1 0.0
23/12:00pm 22.4 20.1 10.5 47 6.5 S 13 26 7 14 1021.3 1021.2 0.0
23/11:30am 21.0 18.0 10.5 51 5.7 SW 17 24 9 13 1021.4 1021.3 0.0
23/11:00am 21.0 18.5 11.1 53 5.5 SSW 15 22 8 12 1021.4 1021.3 0.0
23/10:30am 20.5 17.4 11.7 57 4.9 SSW 19 26 10 14 1021.3 1021.2 0.0
23/10:00am 20.0 16.8 12.0 60 4.5 SSW 20 28 11 15 1020.9 1020.8 0.0
23/09:30am 19.9 16.9 12.7 63 4.0 SSW 20 26 11 14 1020.6 1020.5 0.0
23/09:00am 19.7 16.8 12.2 62 4.2 S 19 24 10 13 1020.2 1020.1 0.0
23/08:30am 19.2 16.4 13.2 68 3.4 SSW 20 24 11 13 1019.8 1019.7 0.0
23/08:00am 18.8 16.7 13.6 72 3.0 SSW 17 22 9 12 1019.2 1019.1 0.0
23/07:30am 17.1 15.3 12.0 72 2.8 SW 13 17 7 9 1018.7 1018.6 0.0
23/07:00am 17.6 15.2 12.5 72 2.8 SW 17 20 9 11 1018.2 1018.1 0.0
23/06:30am 18.3 14.6 12.7 70 3.1 SW 24 30 13 16 1017.7 1017.6 0.0
23/06:00am 18.3 15.5 12.7 70 3.1 SW 19 22 10 12 1017.6 1017.5 0.0
23/05:30am 18.6 15.7 12.8 69 3.2 WSW 20 28 11 15 1017.2 1017.1 0.0
23/05:00am 18.2 15.2 12.6 70 3.1 WSW 20 28 11 15 1017.1 1017.0 0.0
23/04:30am 18.1 15.2 12.3 69 3.2 WSW 19 24 10 13 1016.9 1016.8 0.0
23/04:00am 17.7 14.4 11.7 68 3.3 WSW 20 26 11 14 1016.9 1016.8 0.0
23/03:30am 17.8 14.1 11.6 67 3.4 WSW 22 28 12 15 1016.8 1016.7 0.0
23/03:00am 17.5 14.8 11.8 69 3.1 SW 17 20 9 11 1016.8 1016.7 0.0
23/02:30am 17.7 15.0 11.7 68 3.3 WSW 17 20 9 11 1017.0 1016.9 0.0
23/02:00am 17.7 15.1 11.9 69 3.2 WSW 17 20 9 11 1017.1 1017.0 0.0
23/01:30am 18.6 14.4 12.4 67 3.4 SW 26 33 14 18 1017.0 1016.9 0.0
23/01:00am 18.7 15.4 12.9 69 3.3 WSW 22 28 12 15 1017.2 1017.1 0.0
23/12:30am 19.1 15.0 12.8 67 3.5 WSW 26 33 14 18 1017.0 1016.9 0.0
23/12:00am 19.2 15.8 12.5 65 3.7 WSW 22 30 12 16 1016.9 1016.8 0.0
 
Date/Time
CDT
Temp
°C
App
Temp
°C
Dew
Point
°C
Rel
Hum
%
Delta-T
°C
Wind Press
QNH
hPa
Press
MSL
hPa
Rain since
9am
mm
Dir  Spd
km/h
Gust
km/h
Spd
kts
Gust
kts
22/11:30pm 19.2 16.4 12.5 65 3.7 WSW 19 26 10 14 1017.0 1016.9 0.0
22/11:00pm 20.0 17.5 13.5 66 3.7 WSW 19 28 10 15 1016.9 1016.8 0.0
22/10:30pm 19.8 16.1 12.8 64 3.9 WSW 24 33 13 18 1016.5 1016.4 0.0
22/10:00pm 20.0 17.0 12.7 63 4.1 WSW 20 28 11 15 1016.2 1016.1 0.0

Latest Capital City Observations: Canberra | Sydney | Melbourne | Brisbane | Adelaide | Perth | Hobart | Darwin

Other Formats:

Comma delimited format used in spreadsheet applications
http://www.bom.gov.au/fwo/IDS60901/IDS60901.95676.axf

JavaScript Object Notation format (JSON) in row-major order
http://www.bom.gov.au/fwo/IDS60901/IDS60901.95676.json